sensor_id;sensor_type;location;lat;lon;timestamp;P1;durP1;ratioP1;P2;durP2;ratioP2
23496;SDS011;11925;48.122;11.560;2023-09-08T00:00:15;10.60;;;7.43;;
23496;SDS011;11925;48.122;11.560;2023-09-08T00:02:44;9.52;;;7.55;;
23496;SDS011;11925;48.122;11.560;2023-09-08T00:05:12;9.93;;;7.60;;
23496;SDS011;11925;48.122;11.560;2023-09-08T00:07:41;9.90;;;7.22;;
23496;SDS011;11925;48.122;11.560;2023-09-08T00:10:10;11.82;;;7.50;;
23496;SDS011;11925;48.122;11.560;2023-09-08T00:12:40;11.50;;;7.25;;
23496;SDS011;11925;48.122;11.560;2023-09-08T00:15:09;9.70;;;7.53;;
23496;SDS011;11925;48.122;11.560;2023-09-08T00:17:38;8.57;;;7.10;;
23496;SDS011;11925;48.122;11.560;2023-09-08T00:20:07;12.43;;;7.65;;
23496;SDS011;11925;48.122;11.560;2023-09-08T00:22:37;10.52;;;7.30;;
23496;SDS011;11925;48.122;11.560;2023-09-08T00:25:06;10.57;;;7.07;;
23496;SDS011;11925;48.122;11.560;2023-09-08T00:27:34;7.85;;;6.40;;
23496;SDS011;11925;48.122;11.560;2023-09-08T00:30:05;9.85;;;7.45;;
23496;SDS011;11925;48.122;11.560;2023-09-08T00:32:34;9.23;;;7.00;;
23496;SDS011;11925;48.122;11.560;2023-09-08T00:35:05;8.85;;;6.75;;
23496;SDS011;11925;48.122;11.560;2023-09-08T00:37:34;10.35;;;7.10;;
23496;SDS011;11925;48.122;11.560;2023-09-08T00:40:03;8.18;;;6.75;;
23496;SDS011;11925;48.122;11.560;2023-09-08T00:42:32;8.27;;;6.72;;
23496;SDS011;11925;48.122;11.560;2023-09-08T00:45:01;10.13;;;6.75;;
23496;SDS011;11925;48.122;11.560;2023-09-08T00:47:32;10.88;;;7.30;;
23496;SDS011;11925;48.122;11.560;2023-09-08T00:50:02;8.32;;;6.28;;
23496;SDS011;11925;48.122;11.560;2023-09-08T00:52:31;8.05;;;6.75;;
23496;SDS011;11925;48.122;11.560;2023-09-08T00:55:00;11.50;;;7.70;;
23496;SDS011;11925;48.122;11.560;2023-09-08T00:57:29;8.40;;;6.50;;
23496;SDS011;11925;48.122;11.560;2023-09-08T00:59:57;9.18;;;6.82;;
23496;SDS011;11925;48.122;11.560;2023-09-08T01:02:27;9.82;;;7.32;;
23496;SDS011;11925;48.122;11.560;2023-09-08T01:04:57;7.78;;;6.53;;
23496;SDS011;11925;48.122;11.560;2023-09-08T01:07:26;9.35;;;7.28;;
23496;SDS011;11925;48.122;11.560;2023-09-08T01:09:55;8.63;;;7.10;;
23496;SDS011;11925;48.122;11.560;2023-09-08T01:12:24;9.43;;;6.97;;
23496;SDS011;11925;48.122;11.560;2023-09-08T01:14:53;10.27;;;7.28;;
23496;SDS011;11925;48.122;11.560;2023-09-08T01:17:21;10.52;;;7.60;;
23496;SDS011;11925;48.122;11.560;2023-09-08T01:19:50;9.35;;;7.40;;
23496;SDS011;11925;48.122;11.560;2023-09-08T01:22:23;9.93;;;7.13;;
23496;SDS011;11925;48.122;11.560;2023-09-08T01:25:08;12.30;;;6.90;;
23496;SDS011;11925;48.122;11.560;2023-09-08T01:27:38;9.15;;;7.00;;
23496;SDS011;11925;48.122;11.560;2023-09-08T01:30:09;8.45;;;6.40;;
23496;SDS011;11925;48.122;11.560;2023-09-08T01:32:39;9.52;;;6.70;;
23496;SDS011;11925;48.122;11.560;2023-09-08T01:35:08;9.45;;;6.60;;
23496;SDS011;11925;48.122;11.560;2023-09-08T01:37:39;9.55;;;6.72;;
23496;SDS011;11925;48.122;11.560;2023-09-08T01:40:10;8.85;;;6.57;;
23496;SDS011;11925;48.122;11.560;2023-09-08T01:42:39;8.82;;;6.65;;
23496;SDS011;11925;48.122;11.560;2023-09-08T01:45:08;8.57;;;6.50;;
23496;SDS011;11925;48.122;11.560;2023-09-08T01:47:37;9.40;;;7.13;;
23496;SDS011;11925;48.122;11.560;2023-09-08T01:50:06;11.82;;;6.55;;
23496;SDS011;11925;48.122;11.560;2023-09-08T01:52:35;8.93;;;6.78;;
23496;SDS011;11925;48.122;11.560;2023-09-08T01:55:03;9.95;;;7.00;;
23496;SDS011;11925;48.122;11.560;2023-09-08T01:57:35;9.57;;;7.17;;
23496;SDS011;11925;48.122;11.560;2023-09-08T02:00:05;10.15;;;6.50;;
23496;SDS011;11925;48.122;11.560;2023-09-08T02:02:43;8.93;;;6.97;;
23496;SDS011;11925;48.122;11.560;2023-09-08T02:05:11;8.38;;;6.72;;
23496;SDS011;11925;48.122;11.560;2023-09-08T02:07:41;9.63;;;6.55;;
23496;SDS011;11925;48.122;11.560;2023-09-08T02:10:09;9.15;;;6.60;;
23496;SDS011;11925;48.122;11.560;2023-09-08T02:12:40;9.23;;;6.05;;
23496;SDS011;11925;48.122;11.560;2023-09-08T02:15:09;9.77;;;6.78;;
23496;SDS011;11925;48.122;11.560;2023-09-08T02:17:38;9.70;;;6.38;;
23496;SDS011;11925;48.122;11.560;2023-09-08T02:20:08;8.90;;;6.40;;
23496;SDS011;11925;48.122;11.560;2023-09-08T02:22:38;10.30;;;6.47;;
23496;SDS011;11925;48.122;11.560;2023-09-08T02:25:07;9.30;;;6.90;;
23496;SDS011;11925;48.122;11.560;2023-09-08T02:27:36;7.63;;;6.30;;
23496;SDS011;11925;48.122;11.560;2023-09-08T02:30:07;8.57;;;6.45;;
23496;SDS011;11925;48.122;11.560;2023-09-08T02:32:36;8.07;;;6.53;;
23496;SDS011;11925;48.122;11.560;2023-09-08T02:35:06;8.65;;;6.65;;
23496;SDS011;11925;48.122;11.560;2023-09-08T02:37:36;10.43;;;7.07;;
23496;SDS011;11925;48.122;11.560;2023-09-08T02:40:06;9.45;;;6.53;;
23496;SDS011;11925;48.122;11.560;2023-09-08T02:42:37;8.88;;;6.63;;
23496;SDS011;11925;48.122;11.560;2023-09-08T02:45:08;9.65;;;6.50;;
23496;SDS011;11925;48.122;11.560;2023-09-08T02:47:37;7.80;;;5.65;;
23496;SDS011;11925;48.122;11.560;2023-09-08T02:50:07;8.05;;;6.00;;
23496;SDS011;11925;48.122;11.560;2023-09-08T02:52:36;8.10;;;5.75;;
23496;SDS011;11925;48.122;11.560;2023-09-08T02:55:04;9.18;;;6.45;;
23496;SDS011;11925;48.122;11.560;2023-09-08T02:57:33;7.60;;;5.90;;
23496;SDS011;11925;48.122;11.560;2023-09-08T03:00:02;10.25;;;6.28;;
23496;SDS011;11925;48.122;11.560;2023-09-08T03:02:34;7.57;;;6.15;;
23496;SDS011;11925;48.122;11.560;2023-09-08T03:05:03;8.75;;;6.00;;
23496;SDS011;11925;48.122;11.560;2023-09-08T03:07:34;8.82;;;6.55;;
23496;SDS011;11925;48.122;11.560;2023-09-08T03:10:04;7.43;;;6.05;;
23496;SDS011;11925;48.122;11.560;2023-09-08T03:12:35;9.27;;;6.13;;
23496;SDS011;11925;48.122;11.560;2023-09-08T03:15:04;8.75;;;6.10;;
23496;SDS011;11925;48.122;11.560;2023-09-08T03:17:35;9.48;;;6.72;;
23496;SDS011;11925;48.122;11.560;2023-09-08T03:20:04;9.75;;;6.38;;
23496;SDS011;11925;48.122;11.560;2023-09-08T03:22:35;8.40;;;6.60;;
23496;SDS011;11925;48.122;11.560;2023-09-08T03:25:04;7.95;;;6.28;;
23496;SDS011;11925;48.122;11.560;2023-09-08T03:27:32;10.13;;;6.90;;
23496;SDS011;11925;48.122;11.560;2023-09-08T03:30:01;8.68;;;6.30;;
23496;SDS011;11925;48.122;11.560;2023-09-08T03:32:31;9.05;;;6.10;;
23496;SDS011;11925;48.122;11.560;2023-09-08T03:35:01;8.20;;;6.60;;
23496;SDS011;11925;48.122;11.560;2023-09-08T03:37:34;8.23;;;6.50;;
23496;SDS011;11925;48.122;11.560;2023-09-08T03:40:04;7.72;;;5.95;;
23496;SDS011;11925;48.122;11.560;2023-09-08T03:42:34;10.43;;;6.45;;
23496;SDS011;11925;48.122;11.560;2023-09-08T03:45:03;9.38;;;6.68;;
23496;SDS011;11925;48.122;11.560;2023-09-08T03:47:32;10.10;;;6.57;;
23496;SDS011;11925;48.122;11.560;2023-09-08T03:50:02;7.82;;;6.63;;
23496;SDS011;11925;48.122;11.560;2023-09-08T03:52:31;9.70;;;6.53;;
23496;SDS011;11925;48.122;11.560;2023-09-08T03:54:59;8.85;;;6.60;;
23496;SDS011;11925;48.122;11.560;2023-09-08T03:57:28;7.45;;;5.70;;
23496;SDS011;11925;48.122;11.560;2023-09-08T03:59:56;6.72;;;5.50;;
23496;SDS011;11925;48.122;11.560;2023-09-08T04:02:25;10.15;;;6.53;;
23496;SDS011;11925;48.122;11.560;2023-09-08T04:04:54;6.93;;;5.82;;
23496;SDS011;11925;48.122;11.560;2023-09-08T04:07:24;8.02;;;5.72;;
23496;SDS011;11925;48.122;11.560;2023-09-08T04:09:53;8.20;;;5.78;;
23496;SDS011;11925;48.122;11.560;2023-09-08T04:12:21;8.55;;;6.20;;
23496;SDS011;11925;48.122;11.560;2023-09-08T04:14:50;8.15;;;5.90;;
23496;SDS011;11925;48.122;11.560;2023-09-08T04:17:19;8.57;;;5.90;;
23496;SDS011;11925;48.122;11.560;2023-09-08T04:19:47;8.57;;;6.05;;
23496;SDS011;11925;48.122;11.560;2023-09-08T04:22:16;9.35;;;6.05;;
23496;SDS011;11925;48.122;11.560;2023-09-08T04:24:47;7.43;;;5.70;;
23496;SDS011;11925;48.122;11.560;2023-09-08T04:27:16;9.57;;;6.05;;
23496;SDS011;11925;48.122;11.560;2023-09-08T04:29:46;9.75;;;5.82;;
23496;SDS011;11925;48.122;11.560;2023-09-08T04:32:15;8.57;;;6.10;;
23496;SDS011;11925;48.122;11.560;2023-09-08T04:34:43;6.20;;;5.57;;
23496;SDS011;11925;48.122;11.560;2023-09-08T04:37:12;7.43;;;5.63;;
23496;SDS011;11925;48.122;11.560;2023-09-08T04:39:41;9.35;;;5.82;;
23496;SDS011;11925;48.122;11.560;2023-09-08T04:42:13;6.78;;;5.47;;
23496;SDS011;11925;48.122;11.560;2023-09-08T04:44:42;7.82;;;5.22;;
23496;SDS011;11925;48.122;11.560;2023-09-08T04:47:13;7.43;;;5.78;;
23496;SDS011;11925;48.122;11.560;2023-09-08T04:49:42;7.95;;;5.90;;
23496;SDS011;11925;48.122;11.560;2023-09-08T04:52:11;8.85;;;5.82;;
23496;SDS011;11925;48.122;11.560;2023-09-08T04:54:42;8.65;;;6.00;;
23496;SDS011;11925;48.122;11.560;2023-09-08T04:57:10;10.95;;;6.60;;
23496;SDS011;11925;48.122;11.560;2023-09-08T04:59:53;13.02;;;7.40;;
23496;SDS011;11925;48.122;11.560;2023-09-08T05:02:22;11.98;;;8.50;;
23496;SDS011;11925;48.122;11.560;2023-09-08T05:04:51;10.43;;;6.97;;
23496;SDS011;11925;48.122;11.560;2023-09-08T05:07:20;8.30;;;6.30;;
23496;SDS011;11925;48.122;11.560;2023-09-08T05:09:49;8.48;;;6.30;;
23496;SDS011;11925;48.122;11.560;2023-09-08T05:12:23;11.02;;;6.35;;
23496;SDS011;11925;48.122;11.560;2023-09-08T05:14:53;7.80;;;6.10;;
23496;SDS011;11925;48.122;11.560;2023-09-08T05:17:28;9.55;;;6.00;;
23496;SDS011;11925;48.122;11.560;2023-09-08T05:19:56;8.73;;;6.00;;
23496;SDS011;11925;48.122;11.560;2023-09-08T05:22:25;9.63;;;6.15;;
23496;SDS011;11925;48.122;11.560;2023-09-08T05:24:54;8.50;;;5.90;;
23496;SDS011;11925;48.122;11.560;2023-09-08T05:27:23;10.50;;;6.40;;
23496;SDS011;11925;48.122;11.560;2023-09-08T05:29:54;9.90;;;6.10;;
23496;SDS011;11925;48.122;11.560;2023-09-08T05:32:23;8.63;;;6.07;;
23496;SDS011;11925;48.122;11.560;2023-09-08T05:34:52;11.00;;;6.07;;
23496;SDS011;11925;48.122;11.560;2023-09-08T05:37:22;8.52;;;6.15;;
23496;SDS011;11925;48.122;11.560;2023-09-08T05:39:50;8.02;;;5.95;;
23496;SDS011;11925;48.122;11.560;2023-09-08T05:42:19;8.30;;;6.68;;
23496;SDS011;11925;48.122;11.560;2023-09-08T05:44:49;9.27;;;6.55;;
23496;SDS011;11925;48.122;11.560;2023-09-08T05:47:19;9.18;;;6.55;;
23496;SDS011;11925;48.122;11.560;2023-09-08T05:49:47;9.00;;;6.20;;
23496;SDS011;11925;48.122;11.560;2023-09-08T05:52:17;9.98;;;6.43;;
23496;SDS011;11925;48.122;11.560;2023-09-08T05:54:46;8.90;;;6.35;;
23496;SDS011;11925;48.122;11.560;2023-09-08T05:57:15;7.63;;;6.30;;
23496;SDS011;11925;48.122;11.560;2023-09-08T05:59:43;7.72;;;5.90;;
23496;SDS011;11925;48.122;11.560;2023-09-08T06:02:12;10.95;;;6.50;;
23496;SDS011;11925;48.122;11.560;2023-09-08T06:04:43;10.60;;;6.78;;
23496;SDS011;11925;48.122;11.560;2023-09-08T06:07:12;11.20;;;7.65;;
23496;SDS011;11925;48.122;11.560;2023-09-08T06:09:41;9.80;;;7.60;;
23496;SDS011;11925;48.122;11.560;2023-09-08T06:12:10;10.10;;;7.05;;
23496;SDS011;11925;48.122;11.560;2023-09-08T06:14:38;9.32;;;6.85;;
23496;SDS011;11925;48.122;11.560;2023-09-08T06:17:10;9.27;;;7.15;;
23496;SDS011;11925;48.122;11.560;2023-09-08T06:19:39;10.63;;;6.95;;
23496;SDS011;11925;48.122;11.560;2023-09-08T06:22:09;11.18;;;7.32;;
23496;SDS011;11925;48.122;11.560;2023-09-08T06:24:38;10.68;;;7.32;;
23496;SDS011;11925;48.122;11.560;2023-09-08T06:27:07;11.73;;;7.63;;
23496;SDS011;11925;48.122;11.560;2023-09-08T06:29:38;11.40;;;7.90;;
23496;SDS011;11925;48.122;11.560;2023-09-08T06:32:12;12.55;;;7.75;;
23496;SDS011;11925;48.122;11.560;2023-09-08T06:34:43;12.43;;;8.18;;
23496;SDS011;11925;48.122;11.560;2023-09-08T06:37:13;10.27;;;7.38;;
23496;SDS011;11925;48.122;11.560;2023-09-08T06:39:41;11.73;;;8.27;;
23496;SDS011;11925;48.122;11.560;2023-09-08T06:42:10;14.48;;;8.50;;
23496;SDS011;11925;48.122;11.560;2023-09-08T06:44:47;14.77;;;9.30;;
23496;SDS011;11925;48.122;11.560;2023-09-08T06:47:16;15.52;;;9.40;;
23496;SDS011;11925;48.122;11.560;2023-09-08T06:49:45;16.33;;;9.32;;
23496;SDS011;11925;48.122;11.560;2023-09-08T06:52:16;15.73;;;9.15;;
23496;SDS011;11925;48.122;11.560;2023-09-08T06:54:45;16.92;;;9.45;;
23496;SDS011;11925;48.122;11.560;2023-09-08T06:57:14;13.73;;;9.10;;
23496;SDS011;11925;48.122;11.560;2023-09-08T06:59:43;15.43;;;9.27;;
23496;SDS011;11925;48.122;11.560;2023-09-08T07:02:11;17.65;;;8.82;;
23496;SDS011;11925;48.122;11.560;2023-09-08T07:04:40;20.27;;;10.70;;
23496;SDS011;11925;48.122;11.560;2023-09-08T07:07:09;17.52;;;10.30;;
23496;SDS011;11925;48.122;11.560;2023-09-08T07:09:40;18.23;;;12.32;;
23496;SDS011;11925;48.122;11.560;2023-09-08T07:12:09;18.98;;;12.75;;
23496;SDS011;11925;48.122;11.560;2023-09-08T07:14:37;23.67;;;12.00;;
23496;SDS011;11925;48.122;11.560;2023-09-08T07:17:06;16.98;;;10.45;;
23496;SDS011;11925;48.122;11.560;2023-09-08T07:19:35;15.05;;;10.65;;
23496;SDS011;11925;48.122;11.560;2023-09-08T07:22:04;19.40;;;10.80;;
23496;SDS011;11925;48.122;11.560;2023-09-08T07:24:33;15.60;;;10.75;;
23496;SDS011;11925;48.122;11.560;2023-09-08T07:27:04;18.02;;;10.98;;
23496;SDS011;11925;48.122;11.560;2023-09-08T07:29:32;15.55;;;10.75;;
23496;SDS011;11925;48.122;11.560;2023-09-08T07:32:01;15.90;;;10.05;;
23496;SDS011;11925;48.122;11.560;2023-09-08T07:34:30;16.42;;;9.75;;
23496;SDS011;11925;48.122;11.560;2023-09-08T07:36:59;13.77;;;9.90;;
23496;SDS011;11925;48.122;11.560;2023-09-08T07:39:28;13.95;;;9.65;;
23496;SDS011;11925;48.122;11.560;2023-09-08T07:41:57;12.48;;;9.57;;
23496;SDS011;11925;48.122;11.560;2023-09-08T07:44:29;15.37;;;9.80;;
23496;SDS011;11925;48.122;11.560;2023-09-08T07:46:58;15.30;;;10.38;;
23496;SDS011;11925;48.122;11.560;2023-09-08T07:49:27;15.02;;;9.82;;
23496;SDS011;11925;48.122;11.560;2023-09-08T07:51:55;14.07;;;9.68;;
23496;SDS011;11925;48.122;11.560;2023-09-08T07:54:24;16.90;;;11.10;;
23496;SDS011;11925;48.122;11.560;2023-09-08T07:56:52;14.82;;;9.05;;
23496;SDS011;11925;48.122;11.560;2023-09-08T07:59:21;18.63;;;9.90;;
23496;SDS011;11925;48.122;11.560;2023-09-08T08:01:52;12.90;;;9.38;;
23496;SDS011;11925;48.122;11.560;2023-09-08T08:04:20;11.75;;;9.25;;
23496;SDS011;11925;48.122;11.560;2023-09-08T08:06:49;12.70;;;9.02;;
23496;SDS011;11925;48.122;11.560;2023-09-08T08:09:18;12.77;;;9.02;;
23496;SDS011;11925;48.122;11.560;2023-09-08T08:11:46;12.40;;;8.50;;
23496;SDS011;11925;48.122;11.560;2023-09-08T08:14:16;12.43;;;8.40;;
23496;SDS011;11925;48.122;11.560;2023-09-08T08:16:44;10.82;;;8.48;;
23496;SDS011;11925;48.122;11.560;2023-09-08T08:19:14;12.52;;;8.80;;
23496;SDS011;11925;48.122;11.560;2023-09-08T08:21:43;9.90;;;7.85;;
23496;SDS011;11925;48.122;11.560;2023-09-08T08:24:12;11.60;;;7.40;;
23496;SDS011;11925;48.122;11.560;2023-09-08T08:26:41;11.88;;;8.32;;
23496;SDS011;11925;48.122;11.560;2023-09-08T08:29:09;10.68;;;8.05;;
23496;SDS011;11925;48.122;11.560;2023-09-08T08:31:38;13.52;;;8.90;;
23496;SDS011;11925;48.122;11.560;2023-09-08T08:34:07;10.50;;;7.95;;
23496;SDS011;11925;48.122;11.560;2023-09-08T08:36:38;11.98;;;8.68;;
23496;SDS011;11925;48.122;11.560;2023-09-08T08:39:06;11.70;;;8.13;;
23496;SDS011;11925;48.122;11.560;2023-09-08T08:41:35;12.13;;;8.77;;
23496;SDS011;11925;48.122;11.560;2023-09-08T08:44:06;11.23;;;8.38;;
23496;SDS011;11925;48.122;11.560;2023-09-08T08:46:35;11.25;;;8.25;;
23496;SDS011;11925;48.122;11.560;2023-09-08T08:49:05;12.07;;;9.18;;
23496;SDS011;11925;48.122;11.560;2023-09-08T08:51:35;13.10;;;9.27;;
23496;SDS011;11925;48.122;11.560;2023-09-08T08:54:05;12.40;;;8.93;;
23496;SDS011;11925;48.122;11.560;2023-09-08T08:56:35;10.90;;;8.32;;
23496;SDS011;11925;48.122;11.560;2023-09-08T08:59:04;10.90;;;8.63;;
23496;SDS011;11925;48.122;11.560;2023-09-08T09:01:32;11.07;;;8.40;;
23496;SDS011;11925;48.122;11.560;2023-09-08T09:04:01;10.25;;;8.52;;
23496;SDS011;11925;48.122;11.560;2023-09-08T09:06:33;10.65;;;8.80;;
23496;SDS011;11925;48.122;11.560;2023-09-08T09:09:02;12.27;;;9.10;;
23496;SDS011;11925;48.122;11.560;2023-09-08T09:11:33;11.75;;;8.05;;
23496;SDS011;11925;48.122;11.560;2023-09-08T09:14:01;12.52;;;9.00;;
23496;SDS011;11925;48.122;11.560;2023-09-08T09:16:30;11.68;;;8.57;;
23496;SDS011;11925;48.122;11.560;2023-09-08T09:18:59;12.25;;;8.68;;
23496;SDS011;11925;48.122;11.560;2023-09-08T09:21:40;10.32;;;8.25;;
23496;SDS011;11925;48.122;11.560;2023-09-08T09:24:13;12.48;;;8.45;;
23496;SDS011;11925;48.122;11.560;2023-09-08T09:26:47;11.35;;;8.35;;
23496;SDS011;11925;48.122;11.560;2023-09-08T09:29:20;13.98;;;8.73;;
23496;SDS011;11925;48.122;11.560;2023-09-08T09:31:52;10.80;;;8.82;;
23496;SDS011;11925;48.122;11.560;2023-09-08T09:34:21;12.18;;;8.50;;
23496;SDS011;11925;48.122;11.560;2023-09-08T09:36:50;10.45;;;8.10;;
23496;SDS011;11925;48.122;11.560;2023-09-08T09:39:20;10.93;;;8.13;;
23496;SDS011;11925;48.122;11.560;2023-09-08T09:41:52;11.80;;;8.15;;
23496;SDS011;11925;48.122;11.560;2023-09-08T09:44:22;11.15;;;8.15;;
23496;SDS011;11925;48.122;11.560;2023-09-08T09:46:51;10.60;;;8.75;;
23496;SDS011;11925;48.122;11.560;2023-09-08T09:49:20;10.75;;;8.10;;
23496;SDS011;11925;48.122;11.560;2023-09-08T09:51:50;10.85;;;8.15;;
23496;SDS011;11925;48.122;11.560;2023-09-08T09:54:21;10.25;;;8.13;;
23496;SDS011;11925;48.122;11.560;2023-09-08T09:56:51;12.27;;;8.48;;
23496;SDS011;11925;48.122;11.560;2023-09-08T09:59:20;9.45;;;7.85;;
23496;SDS011;11925;48.122;11.560;2023-09-08T10:01:49;10.35;;;8.55;;
23496;SDS011;11925;48.122;11.560;2023-09-08T10:04:18;10.18;;;8.23;;
23496;SDS011;11925;48.122;11.560;2023-09-08T10:06:47;10.48;;;8.35;;
23496;SDS011;11925;48.122;11.560;2023-09-08T10:09:15;9.35;;;7.80;;
23496;SDS011;11925;48.122;11.560;2023-09-08T10:11:47;11.27;;;8.18;;
23496;SDS011;11925;48.122;11.560;2023-09-08T10:14:17;11.40;;;8.07;;
23496;SDS011;11925;48.122;11.560;2023-09-08T10:19:16;11.02;;;8.10;;
23496;SDS011;11925;48.122;11.560;2023-09-08T10:21:45;11.80;;;7.70;;
23496;SDS011;11925;48.122;11.560;2023-09-08T10:24:15;10.07;;;8.43;;
23496;SDS011;11925;48.122;11.560;2023-09-08T10:26:44;10.60;;;8.00;;
23496;SDS011;11925;48.122;11.560;2023-09-08T10:29:15;9.57;;;7.80;;
23496;SDS011;11925;48.122;11.560;2023-09-08T10:31:45;10.43;;;8.43;;
23496;SDS011;11925;48.122;11.560;2023-09-08T10:34:14;10.77;;;7.50;;
23496;SDS011;11925;48.122;11.560;2023-09-08T10:36:43;9.93;;;7.72;;
23496;SDS011;11925;48.122;11.560;2023-09-08T10:39:27;10.07;;;7.65;;
23496;SDS011;11925;48.122;11.560;2023-09-08T10:44:47;10.75;;;7.78;;
23496;SDS011;11925;48.122;11.560;2023-09-08T10:47:25;10.30;;;7.82;;
23496;SDS011;11925;48.122;11.560;2023-09-08T10:49:55;10.88;;;7.88;;
23496;SDS011;11925;48.122;11.560;2023-09-08T10:52:26;9.13;;;7.57;;
23496;SDS011;11925;48.122;11.560;2023-09-08T10:54:55;10.32;;;8.20;;
23496;SDS011;11925;48.122;11.560;2023-09-08T10:57:24;9.57;;;7.78;;
23496;SDS011;11925;48.122;11.560;2023-09-08T10:59:53;10.93;;;8.10;;
23496;SDS011;11925;48.122;11.560;2023-09-08T11:02:34;12.35;;;7.63;;
23496;SDS011;11925;48.122;11.560;2023-09-08T11:05:03;10.13;;;8.07;;
23496;SDS011;11925;48.122;11.560;2023-09-08T11:07:35;11.65;;;8.55;;
23496;SDS011;11925;48.122;11.560;2023-09-08T11:10:05;10.82;;;8.07;;
23496;SDS011;11925;48.122;11.560;2023-09-08T11:12:34;12.00;;;8.77;;
23496;SDS011;11925;48.122;11.560;2023-09-08T11:15:03;12.30;;;9.07;;
23496;SDS011;11925;48.122;11.560;2023-09-08T11:17:35;9.38;;;7.95;;
23496;SDS011;11925;48.122;11.560;2023-09-08T11:20:06;11.30;;;8.75;;
23496;SDS011;11925;48.122;11.560;2023-09-08T11:22:37;12.10;;;8.65;;
23496;SDS011;11925;48.122;11.560;2023-09-08T11:25:07;11.68;;;9.40;;
23496;SDS011;11925;48.122;11.560;2023-09-08T11:27:37;10.48;;;8.50;;
23496;SDS011;11925;48.122;11.560;2023-09-08T11:30:07;10.20;;;8.50;;
23496;SDS011;11925;48.122;11.560;2023-09-08T11:32:37;11.25;;;8.27;;
23496;SDS011;11925;48.122;11.560;2023-09-08T11:35:06;9.98;;;7.50;;
23496;SDS011;11925;48.122;11.560;2023-09-08T11:37:36;12.45;;;8.77;;
23496;SDS011;11925;48.122;11.560;2023-09-08T11:40:06;10.85;;;8.70;;
23496;SDS011;11925;48.122;11.560;2023-09-08T11:42:43;11.25;;;9.02;;
23496;SDS011;11925;48.122;11.560;2023-09-08T11:45:12;10.95;;;8.82;;
23496;SDS011;11925;48.122;11.560;2023-09-08T11:47:45;10.63;;;8.82;;
23496;SDS011;11925;48.122;11.560;2023-09-08T11:50:16;12.05;;;8.70;;
23496;SDS011;11925;48.122;11.560;2023-09-08T11:52:46;10.15;;;8.25;;
23496;SDS011;11925;48.122;11.560;2023-09-08T11:55:15;11.05;;;8.95;;
23496;SDS011;11925;48.122;11.560;2023-09-08T11:57:45;12.60;;;8.73;;
23496;SDS011;11925;48.122;11.560;2023-09-08T12:00:15;11.15;;;8.85;;
23496;SDS011;11925;48.122;11.560;2023-09-08T12:02:46;11.55;;;9.25;;
23496;SDS011;11925;48.122;11.560;2023-09-08T12:05:20;12.23;;;8.68;;
23496;SDS011;11925;48.122;11.560;2023-09-08T12:07:49;12.68;;;8.80;;
23496;SDS011;11925;48.122;11.560;2023-09-08T12:10:18;11.88;;;8.52;;
23496;SDS011;11925;48.122;11.560;2023-09-08T12:12:48;10.68;;;8.88;;
23496;SDS011;11925;48.122;11.560;2023-09-08T12:15:29;10.48;;;8.48;;
23496;SDS011;11925;48.122;11.560;2023-09-08T12:18:01;12.05;;;9.07;;
23496;SDS011;11925;48.122;11.560;2023-09-08T12:20:30;11.27;;;9.05;;
23496;SDS011;11925;48.122;11.560;2023-09-08T12:22:59;10.50;;;8.43;;
23496;SDS011;11925;48.122;11.560;2023-09-08T12:25:28;12.40;;;9.05;;
23496;SDS011;11925;48.122;11.560;2023-09-08T12:27:58;11.25;;;9.05;;
23496;SDS011;11925;48.122;11.560;2023-09-08T12:30:28;13.50;;;8.75;;
23496;SDS011;11925;48.122;11.560;2023-09-08T12:33:01;11.13;;;8.88;;
23496;SDS011;11925;48.122;11.560;2023-09-08T12:35:30;11.50;;;9.32;;
23496;SDS011;11925;48.122;11.560;2023-09-08T12:37:59;10.55;;;8.50;;
23496;SDS011;11925;48.122;11.560;2023-09-08T12:40:29;11.10;;;8.77;;
23496;SDS011;11925;48.122;11.560;2023-09-08T12:42:57;11.90;;;8.60;;
23496;SDS011;11925;48.122;11.560;2023-09-08T12:45:41;11.60;;;8.70;;
23496;SDS011;11925;48.122;11.560;2023-09-08T12:48:11;11.43;;;9.20;;
23496;SDS011;11925;48.122;11.560;2023-09-08T12:50:40;12.27;;;8.90;;
23496;SDS011;11925;48.122;11.560;2023-09-08T12:53:08;11.25;;;8.65;;
23496;SDS011;11925;48.122;11.560;2023-09-08T12:55:37;11.05;;;9.20;;
23496;SDS011;11925;48.122;11.560;2023-09-08T12:58:06;12.80;;;9.18;;
23496;SDS011;11925;48.122;11.560;2023-09-08T13:00:35;10.82;;;8.73;;
23496;SDS011;11925;48.122;11.560;2023-09-08T13:03:03;9.40;;;7.97;;
23496;SDS011;11925;48.122;11.560;2023-09-08T13:05:33;10.45;;;7.75;;
23496;SDS011;11925;48.122;11.560;2023-09-08T13:08:03;10.82;;;9.20;;
23496;SDS011;11925;48.122;11.560;2023-09-08T13:10:31;11.27;;;8.40;;
23496;SDS011;11925;48.122;11.560;2023-09-08T13:13:00;13.80;;;9.23;;
23496;SDS011;11925;48.122;11.560;2023-09-08T13:15:30;11.63;;;8.90;;
23496;SDS011;11925;48.122;11.560;2023-09-08T13:17:59;13.50;;;9.35;;
23496;SDS011;11925;48.122;11.560;2023-09-08T13:20:28;11.10;;;8.80;;
23496;SDS011;11925;48.122;11.560;2023-09-08T13:22:58;11.23;;;8.55;;
23496;SDS011;11925;48.122;11.560;2023-09-08T13:25:27;11.00;;;8.85;;
23496;SDS011;11925;48.122;11.560;2023-09-08T13:27:56;10.60;;;8.18;;
23496;SDS011;11925;48.122;11.560;2023-09-08T13:30:25;11.15;;;8.95;;
23496;SDS011;11925;48.122;11.560;2023-09-08T13:32:54;9.90;;;8.55;;
23496;SDS011;11925;48.122;11.560;2023-09-08T13:35:23;11.45;;;8.65;;
23496;SDS011;11925;48.122;11.560;2023-09-08T13:37:52;12.48;;;9.50;;
23496;SDS011;11925;48.122;11.560;2023-09-08T13:40:22;11.20;;;9.13;;
23496;SDS011;11925;48.122;11.560;2023-09-08T13:42:51;12.43;;;8.75;;
23496;SDS011;11925;48.122;11.560;2023-09-08T13:45:19;10.93;;;9.18;;
23496;SDS011;11925;48.122;11.560;2023-09-08T13:47:48;13.55;;;9.45;;
23496;SDS011;11925;48.122;11.560;2023-09-08T13:50:17;11.23;;;8.82;;
23496;SDS011;11925;48.122;11.560;2023-09-08T13:52:47;11.73;;;9.13;;
23496;SDS011;11925;48.122;11.560;2023-09-08T13:55:17;9.85;;;8.85;;
23496;SDS011;11925;48.122;11.560;2023-09-08T13:58:04;9.73;;;8.65;;
23496;SDS011;11925;48.122;11.560;2023-09-08T14:00:36;12.35;;;8.93;;
23496;SDS011;11925;48.122;11.560;2023-09-08T14:03:11;12.02;;;9.50;;
23496;SDS011;11925;48.122;11.560;2023-09-08T14:05:46;11.70;;;8.85;;
23496;SDS011;11925;48.122;11.560;2023-09-08T14:08:20;13.75;;;9.27;;
23496;SDS011;11925;48.122;11.560;2023-09-08T14:10:52;10.68;;;8.82;;
23496;SDS011;11925;48.122;11.560;2023-09-08T14:13:36;10.52;;;8.85;;
23496;SDS011;11925;48.122;11.560;2023-09-08T14:16:06;12.20;;;8.63;;
23496;SDS011;11925;48.122;11.560;2023-09-08T14:18:35;10.02;;;8.40;;
23496;SDS011;11925;48.122;11.560;2023-09-08T14:21:03;13.07;;;9.35;;
23496;SDS011;11925;48.122;11.560;2023-09-08T14:23:32;11.05;;;9.27;;
23496;SDS011;11925;48.122;11.560;2023-09-08T14:26:03;10.65;;;8.73;;
23496;SDS011;11925;48.122;11.560;2023-09-08T14:28:32;11.68;;;8.15;;
23496;SDS011;11925;48.122;11.560;2023-09-08T14:31:02;10.90;;;8.50;;
23496;SDS011;11925;48.122;11.560;2023-09-08T14:33:31;10.95;;;7.95;;
23496;SDS011;11925;48.122;11.560;2023-09-08T14:36:00;12.32;;;9.02;;
23496;SDS011;11925;48.122;11.560;2023-09-08T14:38:30;12.50;;;9.23;;
23496;SDS011;11925;48.122;11.560;2023-09-08T14:40:59;13.20;;;9.45;;
23496;SDS011;11925;48.122;11.560;2023-09-08T14:43:28;11.65;;;8.77;;
23496;SDS011;11925;48.122;11.560;2023-09-08T14:45:58;11.70;;;9.30;;